< < Back
Terminal Aerodrome Forecast


Current Version              Previous Versions:   1  2  3  4  5  6  7  8  9  

Terminal Aerodrome Forecast

238
FTUS44 KMOB 231100
TAFMOB
TAF
KMOB 231134Z 2312/2412 02004KT P6SM SKC
     FM231500 05008KT P6SM SKC
     FM240300 36002KT P6SM SCT250=



Latest METAR

663
SAUS80 KWBC 240900
MTRMOB
METAR KMOB 240856Z AUTO 35003KT 10SM CLR 11/08 A3007 RMK AO2 SLP180
T01060083 53003


USA.gov is the U.S. government's official web portal to all federal, state and local government web resources and services.